»·PEaware :: UAL2500 KSNA-KDEN

UAL2500 :: KSNA-KDEN

FLIGHT INFORMATION

Flight Status: Arrived
Operator:
United Airlines
More flights by this operator :: More flights under this callsign
Pilot: Evan B. (39662)
Aircraft: BOEING 737-900
(B739)
More flights by this aircraft type
Origin: KSNA John Wayne-Orange Co
United States
Destination: KDEN Denver Intl
United States
More flights between these airports :: More routes between these airports
Route: FINZZ3 BEALE J146 DICEE BUMMP SSKII3
File this flight plan on PilotEdge
Remarks: RMK / SIMBRIEF
Altitude:
(Current/Filed)
37,000ft
Speed:
(Current/Filed)
454kts
Departed: 29-Jul-23 06:20 AM
Arrived: 29-Jul-23 08:12 AM
Distance/Time
Traveled:
733nm/1:52
Distance/Time
To Go:
Arrived

Flight Plot

Page will automatically refresh every two minutes.

Flight plan parsing failed; only flown route is shown


Map Options




Map Legend


Flown Route
Filed Route
Departure Airport
Arrival Airport
Navaid (VOR, NDB)
Fix

Horizontal Profiles

Position Reports

Time Latitude Longitude Heading Altitude Ground
Speed
29-Jul-23 06:02 33.679358 -117.862414 118 50ft 0kts
29-Jul-23 06:03 33.679358 -117.862414 118 41ft 0kts
29-Jul-23 06:04 33.679358 -117.862414 118 41ft 0kts
29-Jul-23 06:05 33.679358 -117.862414 118 41ft 0kts
29-Jul-23 06:06 33.679358 -117.862414 118 41ft 0kts
29-Jul-23 06:07 33.679358 -117.862414 118 41ft 0kts
29-Jul-23 06:08 33.679358 -117.862414 118 41ft 0kts
29-Jul-23 06:09 33.679358 -117.862414 118 50ft 0kts
29-Jul-23 06:10 33.679358 -117.862414 118 50ft 0kts
29-Jul-23 06:11 33.679358 -117.862414 118 50ft 0kts
29-Jul-23 06:12 33.679412 -117.862547 112 47ft 2kts
29-Jul-23 06:13 33.679280 -117.863217 30 49ft 1kts
29-Jul-23 06:14 33.679262 -117.863229 29 50ft 0kts
29-Jul-23 06:16 33.679262 -117.863229 29 50ft 0kts
29-Jul-23 06:17 33.679262 -117.863229 29 50ft 0kts
29-Jul-23 06:18 33.680972 -117.863832 297 50ft 10kts
29-Jul-23 06:19 33.681328 -117.865267 211 43ft 0kts
29-Jul-23 06:20 33.666062 -117.875000 208 772ft 149kts
29-Jul-23 06:21 33.616161 -117.893952 185 2930ft 242kts
29-Jul-23 06:22 33.549560 -117.921698 227 5823ft 276kts
29-Jul-23 06:23 33.498509 -117.992181 257 7950ft 286kts
29-Jul-23 06:24 33.535853 -118.073059 312 10455ft 302kts
29-Jul-23 06:25 33.617619 -118.115660 21 12100ft 372kts
29-Jul-23 06:26 33.712306 -118.058294 26 14802ft 391kts
29-Jul-23 06:27 33.812147 -117.999854 26 17412ft 406kts
29-Jul-23 06:28 33.914902 -117.938224 34 19698ft 420kts
29-Jul-23 06:29 34.008801 -117.851075 38 21797ft 432kts
29-Jul-23 06:30 34.103958 -117.759361 49 23657ft 444kts
29-Jul-23 06:31 34.181592 -117.640954 52 25124ft 456kts
29-Jul-23 06:32 34.262710 -117.520047 51 26587ft 468kts
29-Jul-23 06:33 34.345582 -117.396347 52 28011ft 480kts
29-Jul-23 06:34 34.430699 -117.268780 51 29381ft 491kts
29-Jul-23 06:35 34.517083 -117.138878 52 30553ft 501kts
29-Jul-23 06:36 34.605250 -117.008821 51 32124ft 496kts
29-Jul-23 06:37 34.693610 -116.880373 52 33837ft 493kts
29-Jul-23 06:38 34.781041 -116.752226 53 35236ft 492kts
29-Jul-23 06:39 34.868316 -116.624480 51 36554ft 491kts
29-Jul-23 06:40 34.961380 -116.500887 49 36993ft 501kts
29-Jul-23 06:41 35.054993 -116.376086 50 36960ft 497kts
29-Jul-23 06:41 35.132485 -116.271756 50 36953ft 497kts
29-Jul-23 06:43 35.240887 -116.125331 50 36948ft 498kts
29-Jul-23 06:44 35.333817 -115.999324 50 36961ft 500kts
29-Jul-23 06:45 35.426975 -115.872530 50 36985ft 502kts
29-Jul-23 06:46 35.520331 -115.744993 50 37007ft 502kts
29-Jul-23 06:48 35.783965 -115.382192 50 37036ft 502kts
29-Jul-23 06:50 35.892360 -115.231875 50 37073ft 501kts
29-Jul-23 06:51 35.984463 -115.103600 50 37081ft 500kts
29-Jul-23 06:51 36.061421 -114.996035 50 37028ft 499kts
29-Jul-23 06:52 36.153191 -114.867325 50 36972ft 499kts
29-Jul-23 06:53 36.216503 -114.719874 73 36924ft 488kts
29-Jul-23 06:54 36.263274 -114.561665 72 36876ft 489kts
29-Jul-23 06:55 36.311196 -114.403781 72 36880ft 490kts
29-Jul-23 06:56 36.359060 -114.245227 72 36885ft 490kts
29-Jul-23 06:57 36.406488 -114.087143 72 36916ft 490kts
29-Jul-23 06:58 36.453780 -113.928629 72 36945ft 489kts
29-Jul-23 06:59 36.500859 -113.769939 72 36982ft 489kts
29-Jul-23 07:00 36.547718 -113.611073 72 37009ft 489kts
29-Jul-23 07:01 36.594360 -113.452022 72 37044ft 489kts
29-Jul-23 07:02 36.640640 -113.293380 72 37066ft 489kts
29-Jul-23 07:03 36.686756 -113.133930 72 37144ft 489kts
29-Jul-23 07:04 36.732560 -112.974862 72 37218ft 489kts
29-Jul-23 07:05 36.778284 -112.815065 72 37213ft 489kts
29-Jul-23 07:06 36.823733 -112.655286 72 37252ft 488kts
29-Jul-23 07:07 36.868840 -112.495798 72 37315ft 488kts
29-Jul-23 07:08 36.913731 -112.335864 72 37284ft 487kts
29-Jul-23 07:09 36.958348 -112.176260 72 37193ft 487kts
29-Jul-23 07:10 36.999867 -112.027148 72 37121ft 487kts
29-Jul-23 07:11 37.044245 -111.866702 72 37089ft 487kts
29-Jul-23 07:12 37.088373 -111.706180 72 37148ft 487kts
29-Jul-23 07:13 37.132132 -111.546035 72 37167ft 488kts
29-Jul-23 07:14 37.175908 -111.384839 72 37140ft 488kts
29-Jul-23 07:15 37.219668 -111.223832 69 37057ft 488kts
29-Jul-23 07:16 37.279970 -111.070793 63 37025ft 489kts
29-Jul-23 07:17 37.341056 -110.918045 63 37030ft 489kts
29-Jul-23 07:18 37.401372 -110.765306 63 37012ft 489kts
29-Jul-23 07:19 37.461842 -110.611412 63 37013ft 489kts
29-Jul-23 07:20 37.521792 -110.458118 63 37017ft 489kts
29-Jul-23 07:21 37.581806 -110.303892 64 37030ft 488kts
29-Jul-23 07:22 37.641223 -110.150444 64 37039ft 488kts
29-Jul-23 07:23 37.700581 -109.996386 64 37069ft 487kts
29-Jul-23 07:24 37.759465 -109.842799 64 37105ft 486kts
29-Jul-23 07:25 37.818230 -109.688751 64 37181ft 487kts
29-Jul-23 07:26 37.877062 -109.533730 64 37169ft 488kts
29-Jul-23 07:27 37.935485 -109.379053 64 37097ft 487kts
29-Jul-23 07:28 37.993766 -109.223939 64 37102ft 486kts
29-Jul-23 07:29 38.051561 -109.069321 64 37102ft 486kts
29-Jul-23 07:30 38.109562 -108.913892 63 37102ft 486kts
29-Jul-23 07:31 38.170148 -108.760460 62 37101ft 487kts
29-Jul-23 07:32 38.230599 -108.606487 62 37094ft 487kts
29-Jul-23 07:33 38.290725 -108.452050 63 37102ft 486kts
29-Jul-23 07:34 38.350506 -108.297756 63 37113ft 486kts
29-Jul-23 07:35 38.410085 -108.143204 63 37255ft 486kts
29-Jul-23 07:36 38.469439 -107.988441 63 37384ft 486kts
29-Jul-23 07:37 38.528215 -107.832647 63 37385ft 486kts
29-Jul-23 07:38 38.586579 -107.677414 63 37294ft 486kts
29-Jul-23 07:39 38.645050 -107.521080 63 37196ft 486kts
29-Jul-23 07:40 38.703901 -107.365018 63 37178ft 487kts
29-Jul-23 07:41 38.762890 -107.208992 63 37258ft 487kts
29-Jul-23 07:42 38.821401 -107.053055 63 37291ft 486kts
29-Jul-23 07:43 38.879820 -106.896563 63 37220ft 485kts
29-Jul-23 07:44 38.937678 -106.740734 63 37281ft 485kts
29-Jul-23 07:45 38.995553 -106.584104 63 37289ft 485kts
29-Jul-23 07:46 39.052922 -106.427307 63 37503ft 484kts
29-Jul-23 07:47 39.111137 -106.267488 63 34394ft 498kts
29-Jul-23 07:48 39.169542 -106.106276 63 30784ft 489kts
29-Jul-23 07:49 39.225515 -105.951029 63 27535ft 467kts
29-Jul-23 07:50 39.279039 -105.801912 64 24629ft 451kts
29-Jul-23 07:51 39.330154 -105.658930 63 21959ft 415kts
29-Jul-23 07:52 39.379085 -105.525017 63 20671ft 412kts
29-Jul-23 07:53 39.427547 -105.398908 54 19402ft 366kts
29-Jul-23 07:54 39.484364 -105.296914 53 18271ft 342kts
29-Jul-23 07:55 39.538237 -105.197571 55 17018ft 333kts
29-Jul-23 07:56 39.578660 -105.091511 64 16465ft 333kts
29-Jul-23 07:57 39.617741 -104.983333 64 16017ft 328kts
29-Jul-23 07:58 39.656585 -104.876707 64 15545ft 325kts
29-Jul-23 07:59 39.695495 -104.771365 55 14988ft 316kts
29-Jul-23 08:00 39.755173 -104.691969 44 13971ft 306kts
29-Jul-23 08:01 39.805518 -104.610638 57 12995ft 267kts
29-Jul-23 08:02 39.847186 -104.531454 35 12058ft 264kts
29-Jul-23 08:03 39.918370 -104.521841 359 11166ft 261kts
29-Jul-23 08:04 39.988412 -104.520881 0 9167ft 243kts
29-Jul-23 08:05 40.031672 -104.551157 268 7764ft 178kts
29-Jul-23 08:06 40.031415 -104.615304 265 6970ft 176kts
29-Jul-23 08:07 40.002798 -104.657052 190 7031ft 164kts
29-Jul-23 08:08 39.957399 -104.658860 181 6831ft 164kts
29-Jul-23 08:09 39.911533 -104.659435 180 6230ft 158kts
29-Jul-23 08:10 39.866775 -104.660024 180 5523ft 159kts
29-Jul-23 08:11 39.840375 -104.662115 243 5419ft 30kts
29-Jul-23 08:12 39.838893 -104.665096 270 5420ft 0kts
29-Jul-23 08:13 39.838893 -104.665096 270 5420ft 0kts
29-Jul-23 08:14 39.838893 -104.665096 270 5420ft 0kts
29-Jul-23 08:15 39.838893 -104.665096 270 5420ft 0kts
29-Jul-23 08:16 39.838893 -104.665096 270 5420ft 0kts
29-Jul-23 08:17 39.838893 -104.665096 270 5420ft 0kts
29-Jul-23 08:18 39.838893 -104.665096 270 5420ft 0kts
29-Jul-23 08:19 39.838893 -104.665096 270 5420ft 0kts
29-Jul-23 08:20 39.838893 -104.665096 270 5420ft 0kts
29-Jul-23 08:21 39.838893 -104.665096 270 5420ft 0kts
29-Jul-23 08:22 39.838893 -104.665096 270 5420ft 0kts

Navigation Log

Ident Type
Flight plan parsing failed, navigation log unavailable